Time;durP1;ratioP1;P1;durP2;ratioP2;P2;SDS_P1;SDS_P2;PMS_P1;PMS_P2;Temp;Humidity;BMP_temperature;BMP_pressure;BME280_temperature;BME280_humidity;BME280_pressure;Samples;Min_cycle;Max_cycle;Signal;HPM_P1;HPM_P2
2022/07/12 00:00:09;;;;;;;6.63;3.42;;;18.80;63.20;;;19.22;52.48;98291.19;5009444;28;20060;-41
2022/07/12 00:02:37;;;;;;;4.82;3.40;;;18.80;63.60;;;19.19;52.52;98291.59;5007123;28;20045;-41
2022/07/12 00:05:06;;;;;;;3.35;3.03;;;18.70;63.40;;;19.17;52.71;98300.91;5009640;28;20361;-41
2022/07/12 00:07:34;;;;;;;3.95;3.05;;;18.80;63.80;;;19.13;52.72;98300.47;5006276;28;20226;-41
2022/07/12 00:10:03;;;;;;;3.53;2.88;;;18.70;64.00;;;19.08;52.88;98295.69;5005684;28;20054;-40
2022/07/12 00:12:31;;;;;;;3.45;3.05;;;18.60;64.20;;;19.07;52.89;98293.19;5006663;28;20495;-40
2022/07/12 00:14:59;;;;;;;3.92;2.95;;;18.60;64.20;;;19.04;53.00;98291.72;5006614;28;20064;-40
2022/07/12 00:17:27;;;;;;;3.33;2.65;;;18.60;64.10;;;19.04;53.02;98297.13;5006948;28;20458;-41
2022/07/12 00:19:55;;;;;;;3.15;2.78;;;18.60;64.00;;;19.01;52.94;98289.41;5006904;28;20345;-40
2022/07/12 00:22:23;;;;;;;4.43;2.80;;;18.60;64.30;;;18.97;53.11;98288.16;5007260;28;20072;-40
2022/07/12 00:24:51;;;;;;;7.15;2.70;;;18.60;64.30;;;18.97;53.12;98296.25;5007603;28;20667;-40
2022/07/12 00:27:19;;;;;;;3.58;2.80;;;18.60;64.20;;;18.97;53.11;98301.63;5006733;28;20195;-40
2022/07/12 00:29:46;;;;;;;3.70;2.50;;;18.60;64.30;;;18.97;53.23;98300.81;5008591;28;20046;-40
2022/07/12 00:32:14;;;;;;;3.20;2.90;;;18.60;64.40;;;18.93;53.15;98291.47;5004701;28;20362;-39
2022/07/12 00:34:42;;;;;;;4.57;2.63;;;18.60;64.30;;;18.88;53.17;98298.28;5006945;28;20049;-40
2022/07/12 00:37:10;;;;;;;2.60;2.30;;;18.50;64.40;;;18.85;53.46;98298.66;5005912;28;20056;-40
2022/07/12 00:39:38;;;;;;;2.80;2.45;;;18.40;64.80;;;18.82;53.50;98298.22;5007977;28;20084;-40
2022/07/12 00:42:06;;;;;;;3.20;2.53;;;18.40;65.20;;;18.79;53.50;98296.75;5006877;28;20057;-40
2022/07/12 00:44:34;;;;;;;3.85;2.63;;;18.30;65.40;;;18.79;53.57;98295.91;5006957;28;20042;-40
2022/07/12 00:47:02;;;;;;;3.85;2.20;;;18.30;65.50;;;18.75;53.65;98284.69;5005885;28;20057;-40
2022/07/12 00:49:31;;;;;;;2.40;2.17;;;18.30;65.30;;;18.72;53.57;98282.38;5005340;28;20049;-40
2022/07/12 00:51:59;;;;;;;3.95;2.15;;;18.30;65.30;;;18.68;53.76;98291.88;5006643;28;20048;-40
2022/07/12 00:54:28;;;;;;;3.00;2.35;;;18.30;65.40;;;18.63;53.95;98294.34;5005832;28;20068;-39
2022/07/12 00:56:56;;;;;;;3.00;2.35;;;18.20;65.90;;;18.55;54.05;98284.53;5006346;28;20062;-40
2022/07/12 00:59:23;;;;;;;4.07;3.08;;;18.10;66.50;;;18.47;54.52;98290.91;5006122;28;20058;-39
2022/07/12 01:01:51;;;;;;;3.63;2.63;;;17.90;67.30;;;18.36;54.79;98294.16;5006089;28;20076;-40
2022/07/12 01:04:19;;;;;;;4.97;2.90;;;17.70;68.20;;;18.32;54.94;98294.72;5007805;28;20060;-40
2022/07/12 01:06:47;;;;;;;2.97;2.35;;;17.80;68.50;;;18.29;55.01;98295.97;5006639;28;20435;-41
2022/07/12 01:09:15;;;;;;;2.92;2.35;;;17.80;68.50;;;18.30;54.96;98290.38;5007541;28;20050;-41
2022/07/12 01:11:43;;;;;;;4.57;2.38;;;17.80;68.00;;;18.34;54.99;98296.22;5007082;28;20229;-41
2022/07/12 01:14:11;;;;;;;3.33;2.38;;;18.00;67.80;;;18.31;55.33;98291.22;5006020;28;20045;-41
2022/07/12 01:16:40;;;;;;;3.03;2.20;;;17.80;68.50;;;18.25;55.33;98290.13;5005816;28;20056;-40
2022/07/12 01:19:17;;;;;;;4.10;2.42;;;17.80;68.70;;;18.26;55.50;98291.81;5009416;28;20085;-41
2022/07/12 01:21:48;;;;;;;4.20;2.53;;;17.80;68.50;;;18.29;55.21;98293.25;5009667;28;20064;-41
2022/07/12 01:24:19;;;;;;;2.88;2.10;;;17.90;68.30;;;18.33;55.26;98294.53;5011053;28;20057;-41
2022/07/12 01:26:49;;;;;;;3.00;2.35;;;18.00;67.90;;;18.36;55.01;98301.38;5010208;28;20056;-41
2022/07/12 01:29:17;;;;;;;2.83;2.20;;;18.00;67.70;;;18.37;55.10;98293.13;5009103;28;20050;-41
2022/07/12 01:31:46;;;;;;;2.63;2.05;;;18.10;67.50;;;18.39;54.96;98301.00;5008600;28;20383;-41
2022/07/12 01:34:14;;;;;;;3.28;2.40;;;18.10;67.40;;;18.39;55.18;98299.13;5011104;28;20256;-41
2022/07/12 01:36:42;;;;;;;3.72;2.90;;;18.10;67.60;;;18.37;55.12;98295.81;5010961;28;20063;-41
2022/07/12 01:39:10;;;;;;;3.08;2.60;;;18.00;67.80;;;18.33;55.10;98299.94;5009940;28;20046;-40
2022/07/12 01:41:39;;;;;;;2.88;2.67;;;17.90;68.10;;;18.31;55.41;98293.91;4992313;28;20057;-41
2022/07/12 01:44:07;;;;;;;3.05;2.75;;;17.90;68.30;;;18.29;55.41;98293.25;5010596;28;20041;-40
2022/07/12 01:46:34;;;;;;;3.42;2.67;;;17.80;69.20;;;18.27;55.39;98288.06;5009814;28;20046;-40
2022/07/12 01:49:03;;;;;;;2.85;2.47;;;17.90;68.30;;;18.28;55.87;98294.28;5010161;28;20060;-40
2022/07/12 01:51:32;;;;;;;4.30;2.88;;;17.90;68.30;;;18.27;55.46;98284.53;5007856;28;20053;-40
2022/07/12 01:53:59;;;;;;;4.75;2.83;;;17.90;68.50;;;18.25;55.40;98289.28;5009468;28;20072;-40
2022/07/12 01:56:28;;;;;;;4.57;2.60;;;17.90;68.30;;;18.22;55.41;98281.59;5009828;28;20056;-40
2022/07/12 01:58:55;;;;;;;4.32;2.60;;;17.80;68.20;;;18.19;55.64;98287.38;5008812;28;20065;-40
2022/07/12 02:01:24;;;;;;;3.55;2.47;;;17.80;68.60;;;18.17;55.65;98287.56;5009240;28;20248;-40
2022/07/12 02:03:53;;;;;;;3.30;3.00;;;17.80;68.60;;;18.14;55.57;98295.22;5009463;28;20516;-40
2022/07/12 02:06:22;;;;;;;3.10;2.80;;;17.70;68.70;;;18.06;55.75;98294.31;5010062;28;20049;-40
2022/07/12 02:08:50;;;;;;;3.40;2.65;;;17.60;69.20;;;18.01;55.70;98299.44;5010176;28;20045;-40
2022/07/12 02:11:18;;;;;;;2.78;2.47;;;17.60;69.20;;;17.99;55.84;98290.72;5010237;28;20057;-40
2022/07/12 02:13:46;;;;;;;3.17;2.67;;;17.50;69.50;;;17.94;56.05;98293.16;5008931;28;20057;-40
2022/07/12 02:16:13;;;;;;;3.60;2.60;;;17.40;70.00;;;17.88;56.27;98285.84;5007747;28;20057;-40
2022/07/12 02:18:42;;;;;;;2.95;2.65;;;17.40;70.50;;;17.86;56.11;98287.91;5010048;28;20247;-39
2022/07/12 02:21:09;;;;;;;3.60;2.58;;;17.40;70.20;;;17.84;56.29;98281.88;5009256;28;20056;-40
2022/07/12 02:23:37;;;;;;;3.05;2.70;;;17.40;70.00;;;17.81;56.18;98283.03;5009045;28;20064;-40
2022/07/12 02:26:05;;;;;;;4.05;2.30;;;17.40;70.00;;;17.82;56.11;98287.44;5009179;28;20237;-39
2022/07/12 02:28:33;;;;;;;4.80;2.60;;;17.40;69.90;;;17.81;56.26;98277.66;5008261;28;20042;-39
2022/07/12 02:31:01;;;;;;;3.40;2.45;;;17.40;69.80;;;17.80;56.00;98286.78;5008486;28;20060;-40
2022/07/12 02:33:29;;;;;;;3.55;2.80;;;17.40;69.70;;;17.75;56.15;98281.13;5008179;28;20046;-40
2022/07/12 02:35:56;;;;;;;2.85;2.55;;;17.30;70.20;;;17.60;56.66;98281.19;5009701;28;20064;-40
2022/07/12 02:38:24;;;;;;;5.38;2.65;;;17.00;71.30;;;17.50;56.92;98286.84;5008959;28;20056;-40
2022/07/12 02:40:55;;;;;;;3.45;2.70;;;16.90;72.10;;;17.46;57.03;98282.06;5008367;28;20090;-40
2022/07/12 02:43:28;;;;;;;3.22;1.98;;;16.90;72.50;;;17.43;56.95;98277.91;5008264;28;20052;-39
2022/07/12 02:46:08;;;;;;;3.88;2.80;;;16.90;72.80;;;17.42;56.91;98281.59;5007474;28;20054;-40
2022/07/12 02:48:37;;;;;;;3.05;2.65;;;16.90;73.50;;;17.40;57.31;98277.44;5009041;28;20046;-40
2022/07/12 02:51:07;;;;;;;2.70;2.20;;;16.90;72.90;;;17.35;57.30;98278.03;5008883;28;20057;-39
2022/07/12 02:53:36;;;;;;;3.30;2.20;;;16.80;73.20;;;17.32;57.59;98281.91;5010467;28;20057;-40
2022/07/12 02:56:08;;;;;;;3.28;2.50;;;16.80;74.10;;;17.27;57.71;98281.66;5008997;28;20132;-41
2022/07/12 02:58:37;;;;;;;3.63;2.42;;;16.70;74.30;;;17.25;57.67;98283.69;5008595;28;20049;-40
2022/07/12 03:01:06;;;;;;;2.90;2.10;;;16.70;74.60;;;17.24;57.95;98283.88;5008517;28;20049;-41
2022/07/12 03:03:34;;;;;;;3.10;2.33;;;16.70;74.80;;;17.22;58.17;98278.69;5007168;28;20061;-40
2022/07/12 03:06:03;;;;;;;3.13;2.50;;;16.70;74.90;;;17.23;58.20;98284.88;5007692;28;20060;-41
2022/07/12 03:08:31;;;;;;;3.17;2.50;;;16.70;74.90;;;17.21;58.17;98286.94;5008831;28;20340;-41
2022/07/12 03:11:02;;;;;;;3.88;2.53;;;16.70;75.10;;;17.20;58.31;98287.97;5008465;28;20344;-40
2022/07/12 03:13:30;;;;;;;2.50;2.05;;;16.70;75.70;;;17.17;58.40;98293.72;5008322;28;20060;-41
2022/07/12 03:15:59;;;;;;;5.30;2.60;;;16.70;75.50;;;17.15;58.62;98299.28;5008651;28;20057;-41
2022/07/12 03:18:27;;;;;;;4.43;2.38;;;16.60;75.60;;;17.13;58.35;98293.25;5007922;28;20052;-40
2022/07/12 03:20:55;;;;;;;2.83;2.03;;;16.60;75.60;;;17.11;58.32;98298.00;5007678;28;20060;-40
2022/07/12 03:23:23;;;;;;;2.75;2.35;;;16.60;75.30;;;17.12;58.35;98292.44;5008841;28;20255;-40
2022/07/12 03:25:51;;;;;;;3.00;2.25;;;16.70;75.10;;;17.13;58.52;98301.31;5009436;28;20065;-40
2022/07/12 03:28:19;;;;;;;3.38;2.30;;;16.70;75.10;;;17.11;58.30;98298.00;5008012;28;20499;-40
2022/07/12 03:30:47;;;;;;;2.83;2.13;;;16.70;74.90;;;17.10;58.24;98307.09;5007766;28;20042;-40
2022/07/12 03:33:15;;;;;;;3.30;2.45;;;16.70;75.30;;;17.09;58.63;98310.78;5006511;28;20390;-40
2022/07/12 03:35:43;;;;;;;3.28;2.50;;;16.60;75.80;;;17.08;58.56;98312.66;5009501;28;20053;-40
2022/07/12 03:38:10;;;;;;;2.63;2.42;;;16.60;75.80;;;17.06;58.87;98316.53;5008292;28;20060;-39
2022/07/12 03:40:38;;;;;;;4.07;2.63;;;16.60;76.30;;;16.99;59.17;98324.53;5008907;28;20046;-40
2022/07/12 03:43:06;;;;;;;3.30;3.00;;;16.50;77.20;;;16.94;59.30;98324.22;5008137;28;20054;-40
2022/07/12 03:45:34;;;;;;;2.40;2.20;;;16.40;77.70;;;16.90;59.33;98329.19;5007687;28;20046;-40
2022/07/12 03:48:02;;;;;;;4.85;2.35;;;16.30;78.30;;;16.88;59.33;98336.56;5007656;28;20352;-40
2022/07/12 03:50:30;;;;;;;3.05;2.53;;;16.30;78.60;;;16.82;59.59;98331.94;5007805;28;20060;-40
2022/07/12 03:52:58;;;;;;;3.45;2.17;;;16.30;79.00;;;16.81;59.60;98332.94;5008649;28;20340;-40
2022/07/12 03:55:26;;;;;;;2.88;2.30;;;16.30;78.70;;;16.81;59.46;98343.69;5008258;28;20060;-39
2022/07/12 03:57:53;;;;;;;4.88;2.50;;;16.30;78.70;;;16.78;59.89;98335.16;5008676;28;20370;-40
2022/07/12 04:00:21;;;;;;;2.70;2.33;;;16.40;78.80;;;16.80;59.81;98343.88;5007489;28;20053;-40
2022/07/12 04:02:49;;;;;;;3.25;2.35;;;16.30;78.60;;;16.83;59.59;98336.31;5006885;28;20061;-40
2022/07/12 04:05:17;;;;;;;3.70;2.33;;;16.40;78.30;;;16.85;59.58;98346.88;5007108;28;20045;-40
2022/07/12 04:07:45;;;;;;;3.33;3.00;;;16.50;77.90;;;16.88;59.35;98346.50;5007154;28;20253;-40
2022/07/12 04:10:13;;;;;;;4.45;2.55;;;16.50;77.50;;;16.87;59.51;98342.16;5007815;28;20246;-40
2022/07/12 04:12:41;;;;;;;3.90;3.28;;;16.40;77.40;;;16.87;59.73;98353.72;5007214;28;20269;-40
2022/07/12 04:15:09;;;;;;;2.97;2.63;;;16.50;77.90;;;16.84;59.67;98356.78;5007090;28;20054;-41
2022/07/12 04:17:38;;;;;;;4.30;2.78;;;16.40;78.10;;;16.81;59.84;98356.28;5006644;28;20604;-40
2022/07/12 04:20:06;;;;;;;4.78;2.63;;;16.30;78.60;;;16.77;59.82;98353.16;5007477;28;20057;-40
2022/07/12 04:22:34;;;;;;;3.45;2.80;;;16.30;79.10;;;16.74;60.00;98348.13;5007747;28;20361;-40
2022/07/12 04:25:02;;;;;;;3.80;2.40;;;16.30;79.70;;;16.77;60.08;98346.91;5007917;28;20049;-40
2022/07/12 04:27:30;;;;;;;3.28;2.58;;;16.30;79.40;;;16.81;59.99;98342.84;5006414;28;20236;-40
2022/07/12 04:29:58;;;;;;;3.72;2.60;;;16.40;78.80;;;16.82;60.04;98344.53;5007392;28;20056;-40
2022/07/12 04:32:30;;;;;;;3.75;2.85;;;16.40;78.70;;;16.86;60.03;98345.84;5007106;28;20050;-40
2022/07/12 04:34:58;;;;;;;5.38;2.53;;;16.50;78.50;;;16.88;60.06;98350.00;5007095;28;20053;-40
2022/07/12 04:37:26;;;;;;;4.88;3.00;;;16.50;78.10;;;16.89;59.99;98346.31;5007677;28;20064;-41
2022/07/12 04:39:54;;;;;;;3.25;2.53;;;16.50;78.00;;;16.89;59.92;98348.19;5007588;28;20062;-40
2022/07/12 04:42:22;;;;;;;3.45;2.92;;;16.50;78.20;;;16.90;59.84;98341.75;5007255;28;20058;-39
2022/07/12 04:44:49;;;;;;;4.05;3.13;;;16.50;78.00;;;16.92;59.89;98347.78;5007992;28;20256;-40
2022/07/12 04:47:17;;;;;;;6.55;3.28;;;16.60;78.00;;;16.92;59.96;98343.28;5007395;28;20057;-40
2022/07/12 04:49:46;;;;;;;3.92;2.80;;;16.50;78.30;;;16.89;60.00;98340.94;5005882;28;20045;-41
2022/07/12 04:52:13;;;;;;;4.30;3.10;;;16.50;78.70;;;16.87;60.15;98336.78;5005620;28;20060;-40
2022/07/12 04:54:41;;;;;;;2.90;2.45;;;16.50;78.90;;;16.88;60.15;98341.94;5008245;28;20057;-41
2022/07/12 04:57:09;;;;;;;4.95;3.05;;;16.50;79.00;;;16.94;60.45;98340.38;5007416;28;20068;-40
2022/07/12 04:59:37;;;;;;;4.07;3.00;;;16.70;79.20;;;16.96;60.40;98335.63;5006559;28;20052;-40
2022/07/12 05:02:05;;;;;;;3.03;2.67;;;16.60;79.10;;;17.02;60.49;98347.50;5006465;28;20064;-41
2022/07/12 05:04:33;;;;;;;3.25;2.65;;;16.70;78.80;;;17.07;60.43;98351.31;5008503;28;20556;-40
2022/07/12 05:07:02;;;;;;;2.90;2.63;;;16.90;78.70;;;17.13;60.32;98357.81;5006442;28;20054;-39
2022/07/12 05:09:30;;;;;;;4.55;2.85;;;16.90;78.60;;;17.17;60.38;98355.59;5006386;28;20248;-40
2022/07/12 05:11:58;;;;;;;3.65;2.63;;;16.90;78.30;;;17.20;60.39;98347.16;5008225;28;20068;-41
2022/07/12 05:14:26;;;;;;;3.75;2.63;;;17.00;78.20;;;17.24;60.29;98351.16;5006883;28;20064;-41
2022/07/12 05:16:54;;;;;;;4.05;2.40;;;17.00;78.10;;;17.28;60.49;98357.81;5007519;28;20054;-41
2022/07/12 05:19:22;;;;;;;3.72;2.65;;;17.10;78.00;;;17.31;60.18;98360.13;5005960;28;20057;-41
2022/07/12 05:21:51;;;;;;;3.80;2.70;;;17.10;77.80;;;17.35;60.30;98357.91;5005443;28;20061;-41
2022/07/12 05:24:19;;;;;;;2.58;2.10;;;17.20;77.50;;;17.39;60.37;98367.25;5005862;28;20049;-40
2022/07/12 05:26:46;;;;;;;3.20;2.47;;;17.20;77.20;;;17.41;60.31;98363.38;5005613;28;20049;-40
2022/07/12 05:29:14;;;;;;;3.92;2.45;;;17.30;77.30;;;17.44;60.26;98354.91;5005601;28;20080;-41
2022/07/12 05:31:42;;;;;;;3.03;2.38;;;17.30;77.40;;;17.45;60.52;98361.16;5006451;28;20057;-42
2022/07/12 05:34:10;;;;;;;3.47;2.42;;;17.30;77.50;;;17.48;60.31;98374.22;5007560;28;20062;-41
2022/07/12 05:36:38;;;;;;;3.20;2.20;;;17.30;77.40;;;17.46;60.63;98369.00;5006133;28;20070;-42
2022/07/12 05:39:06;;;;;;;4.43;2.20;;;17.30;77.70;;;17.46;61.04;98371.72;5006499;28;20061;-41
2022/07/12 05:41:34;;;;;;;3.15;2.05;;;17.40;77.50;;;17.47;60.69;98376.09;5006552;28;20356;-41
2022/07/12 05:44:02;;;;;;;3.38;2.38;;;17.50;77.20;;;17.54;60.61;98373.47;5007660;28;20054;-42
2022/07/12 05:46:30;;;;;;;6.90;2.78;;;17.50;77.00;;;17.58;60.83;98379.31;5006636;28;20058;-41
2022/07/12 05:48:58;;;;;;;2.80;2.13;;;17.50;77.40;;;17.62;60.99;98380.59;5005103;28;20057;-41
2022/07/12 05:54:13;;;;;;;3.30;2.15;;;17.60;77.00;;;17.74;60.80;98387.19;5006777;28;20049;-40
2022/07/12 05:56:40;;;;;;;3.08;2.42;;;17.70;77.20;;;17.80;60.70;98383.72;5005788;28;20046;-46
2022/07/12 05:59:08;;;;;;;3.90;2.58;;;17.70;77.00;;;17.87;60.69;98389.22;5005554;28;20052;-44
2022/07/12 06:01:36;;;;;;;5.35;2.53;;;17.80;77.00;;;17.92;60.57;98392.19;5005869;28;20060;-42
2022/07/12 06:04:04;;;;;;;3.45;2.10;;;17.90;76.90;;;17.97;60.57;98391.59;5008045;28;20259;-44
2022/07/12 06:06:32;;;;;;;2.55;2.10;;;17.90;76.80;;;18.00;60.42;98400.16;5009922;28;20048;-43
2022/07/12 06:08:59;;;;;;;3.30;2.28;;;17.90;77.50;;;18.04;60.55;98395.22;5010735;28;20042;-43
2022/07/12 06:11:27;;;;;;;4.57;1.98;;;18.00;76.40;;;18.08;60.37;98399.19;5010444;28;20240;-42
2022/07/12 06:13:55;;;;;;;3.17;2.35;;;18.10;76.30;;;18.13;60.40;98394.06;5008968;28;20352;-42
2022/07/12 06:16:23;;;;;;;3.63;2.13;;;18.10;76.20;;;18.18;59.98;98394.31;5010271;28;20053;-42
2022/07/12 06:18:51;;;;;;;3.15;2.05;;;18.10;75.70;;;18.22;59.81;98397.47;5009686;28;20329;-43
2022/07/12 06:21:19;;;;;;;2.67;1.58;;;18.20;74.80;;;18.26;59.48;98398.75;5008956;28;20050;-43
2022/07/12 06:23:47;;;;;;;1.98;1.30;;;18.20;73.80;;;18.31;58.94;98407.09;5020699;28;20049;-43
2022/07/12 06:26:16;;;;;;;1.33;1.23;;;18.30;72.80;;;18.35;58.46;98400.28;5039488;28;20052;-43
2022/07/12 06:28:45;;;;;;;2.40;1.38;;;18.30;71.60;;;18.41;58.18;98413.00;5038728;28;20056;-44
2022/07/12 06:31:13;;;;;;;4.53;1.75;;;18.40;70.80;;;18.44;58.02;98409.09;5038011;28;20243;-44
2022/07/12 06:33:40;;;;;;;3.10;1.48;;;18.50;70.50;;;18.45;57.87;98408.88;5034929;28;20049;-43
2022/07/12 06:36:08;;;;;;;3.67;1.90;;;18.60;70.00;;;18.48;57.90;98405.81;5039421;28;20047;-43
2022/07/12 06:38:37;;;;;;;1.95;1.52;;;18.60;69.80;;;18.54;57.65;98403.38;5038016;28;20059;-43
2022/07/12 06:41:14;;;;;;;4.07;1.60;;;18.60;69.50;;;18.59;57.40;98409.88;5037173;28;20056;-44
2022/07/12 06:43:42;;;;;;;5.32;1.90;;;18.60;68.90;;;18.64;57.35;98420.88;5038953;28;20061;-42
2022/07/12 06:46:10;;;;;;;3.38;1.30;;;18.70;68.90;;;18.71;57.00;98412.88;5033671;28;20038;-42
2022/07/12 06:48:38;;;;;;;2.47;1.50;;;18.80;68.20;;;18.76;56.58;98410.41;5024137;28;20060;-41
2022/07/12 06:51:06;;;;;;;5.25;1.50;;;18.80;67.50;;;18.83;56.51;98413.19;5024191;28;20052;-41
2022/07/12 06:53:34;;;;;;;1.27;1.05;;;18.90;67.30;;;18.86;56.36;98408.25;5024930;28;20348;-41
2022/07/12 06:56:02;;;;;;;3.65;1.50;;;19.00;67.10;;;18.93;55.77;98415.56;5023147;28;20085;-41
2022/07/12 06:58:29;;;;;;;2.17;1.15;;;19.00;66.10;;;19.00;55.79;98411.88;5022069;28;20052;-40
2022/07/12 07:00:57;;;;;;;2.00;1.40;;;19.10;65.90;;;19.06;55.67;98421.06;5024125;28;20041;-42
2022/07/12 07:03:25;;;;;;;2.05;1.42;;;19.20;66.40;;;19.12;55.58;98424.84;5019703;28;20064;-41
2022/07/12 07:05:53;;;;;;;1.50;1.23;;;19.20;65.50;;;19.15;55.53;98432.53;5017148;28;20048;-41
2022/07/12 07:08:21;;;;;;;4.70;1.17;;;19.20;65.50;;;19.19;54.93;98433.78;5012800;28;20054;-41
2022/07/12 07:10:48;;;;;;;6.82;1.25;;;19.30;64.30;;;19.21;54.45;98437.97;5012327;28;20340;-39
2022/07/12 07:13:16;;;;;;;4.18;1.50;;;19.30;63.60;;;19.25;54.45;98439.25;5009615;28;20041;-39
2022/07/12 07:15:44;;;;;;;3.25;1.30;;;19.40;63.30;;;19.30;54.01;98440.50;5010558;28;20054;-40
2022/07/12 07:18:12;;;;;;;3.15;1.33;;;19.40;62.90;;;19.32;53.71;98441.97;5009110;28;20371;-40
2022/07/12 07:20:40;;;;;;;2.47;1.40;;;19.50;62.40;;;19.40;53.65;98447.22;5008680;28;20052;-40
2022/07/12 07:23:10;;;;;;;6.88;1.33;;;19.50;62.40;;;19.44;53.37;98448.50;5008012;28;20052;-39
2022/07/12 07:25:38;;;;;;;4.45;1.55;;;19.60;62.00;;;19.51;53.11;98450.41;5008998;28;20050;-40
2022/07/12 07:28:05;;;;;;;3.60;1.40;;;19.60;61.50;;;19.56;53.26;98447.94;5006783;28;20053;-40
2022/07/12 07:30:52;;;;;;;2.53;1.10;;;19.70;61.50;;;19.62;53.33;98445.28;5007500;28;20352;-40
2022/07/12 07:33:21;;;;;;;1.10;1.00;;;19.80;61.40;;;19.73;53.10;98452.00;5007279;28;20344;-42
2022/07/12 07:35:50;;;;;;;1.80;1.27;;;19.90;61.30;;;19.80;53.06;98441.25;5007881;28;20643;-43
2022/07/12 07:38:20;;;;;;;1.80;1.30;;;20.00;61.00;;;19.85;52.75;98444.16;5008472;28;20340;-42
2022/07/12 07:40:48;;;;;;;2.83;0.93;;;20.10;60.80;;;19.86;52.61;98445.84;5007455;28;20153;-41
2022/07/12 07:43:16;;;;;;;2.55;1.13;;;20.10;60.50;;;19.92;52.76;98446.91;5006949;28;20268;-41
2022/07/12 07:45:45;;;;;;;1.45;1.23;;;20.10;60.80;;;19.97;52.62;98447.97;5005478;28;20053;-41
2022/07/12 07:48:13;;;;;;;4.20;3.38;;;20.20;60.60;;;19.99;52.85;98448.59;5008563;28;20429;-42
2022/07/12 07:50:51;;;;;;;1.77;1.20;;;20.20;60.80;;;19.98;52.24;98448.78;5007928;28;20057;-41
2022/07/12 07:53:19;;;;;;;1.80;1.00;;;20.20;59.60;;;19.94;51.84;98455.63;4990232;28;20248;-41
2022/07/12 07:55:47;;;;;;;1.45;1.13;;;20.10;59.20;;;19.90;51.47;98457.06;5007177;28;20050;-40
2022/07/12 07:58:16;;;;;;;1.08;0.63;;;20.00;59.20;;;19.89;51.20;98455.41;5007056;28;20435;-40
2022/07/12 08:00:49;;;;;;;0.85;0.80;;;20.00;58.80;;;19.90;51.31;98446.28;5029690;28;20063;-41
2022/07/12 08:03:18;;;;;;;3.28;0.90;;;20.00;58.70;;;19.97;51.21;98444.44;5035629;28;20068;-42
2022/07/12 08:05:47;;;;;;;1.08;0.88;;;20.10;58.70;;;20.05;51.10;98439.66;5036015;28;20055;-40
2022/07/12 08:08:41;;;;;;;1.00;0.90;;;20.20;58.20;;;20.08;50.57;98446.53;5036618;28;20057;-40
2022/07/12 08:11:28;;;;;;;0.75;0.75;;;20.30;56.80;;;20.17;50.33;98447.19;5036286;28;20052;-43
2022/07/12 08:13:56;;;;;;;1.77;1.10;;;20.30;57.40;;;20.21;49.87;98433.06;5033952;28;20055;-44
2022/07/12 08:16:24;;;;;;;0.90;0.90;;;20.40;56.90;;;20.25;49.97;98438.91;5036203;28;20076;-41
2022/07/12 08:18:53;;;;;;;2.03;1.13;;;20.40;56.80;;;20.29;49.71;98428.50;5047166;28;20055;-42
2022/07/12 08:21:21;;;;;;;0.82;0.70;;;20.40;56.80;;;20.31;49.78;98438.06;5045994;28;20049;-42
2022/07/12 08:23:50;;;;;;;1.58;1.00;;;20.50;56.60;;;20.37;49.78;98433.72;5045730;28;20056;-42
2022/07/12 08:26:18;;;;;;;2.25;1.20;;;20.50;56.40;;;20.40;49.54;98436.03;5047117;28;20067;-54
2022/07/12 08:28:46;;;;;;;0.98;0.85;;;20.60;56.50;;;20.41;49.72;98435.81;5044524;28;20061;-48
2022/07/12 08:31:14;;;;;;;1.52;1.40;;;20.50;56.60;;;20.38;49.40;98430.81;5046260;28;20061;-50
2022/07/12 08:33:42;;;;;;;1.75;0.82;;;20.60;56.20;;;20.43;49.64;98439.16;5046471;28;20235;-50
2022/07/12 08:36:10;;;;;;;0.90;0.90;;;20.60;56.40;;;20.44;49.34;98435.41;5047063;28;20053;-51
2022/07/12 08:38:40;;;;;;;2.45;1.30;;;20.60;55.80;;;20.43;49.52;98441.00;5046370;28;20056;-54
2022/07/12 08:41:13;;;;;;;1.27;1.08;;;20.60;55.80;;;20.40;49.45;98439.56;5045902;28;20057;-52
2022/07/12 08:43:42;;;;;;;0.98;0.85;;;20.70;56.00;;;20.41;49.38;98446.66;5045434;28;20055;-52
2022/07/12 08:46:12;;;;;;;2.25;0.90;;;20.60;55.80;;;20.47;49.23;98442.25;5046304;28;20041;-54
2022/07/12 08:48:43;;;;;;;1.42;1.25;;;20.60;55.20;;;20.50;48.75;98447.28;5045199;28;20045;-51
2022/07/12 08:51:14;;;;;;;2.22;1.13;;;20.70;55.40;;;20.52;48.74;98449.78;5046574;28;20071;-51
2022/07/12 08:53:42;;;;;;;1.67;1.30;;;20.70;54.70;;;20.57;48.55;98453.53;5046070;28;20061;-52
2022/07/12 08:56:37;;;;;;;2.72;1.02;;;20.80;55.00;;;20.67;47.97;98455.03;5046115;28;20055;-49
2022/07/12 08:59:22;;;;;;;0.88;0.88;;;21.00;53.30;;;20.75;47.83;98462.94;5045767;28;20047;-51
2022/07/12 09:01:52;;;;;;;1.40;1.02;;;21.00;53.70;;;20.85;47.78;98458.78;5045349;28;20056;-55
2022/07/12 09:04:23;;;;;;;1.13;1.05;;;21.10;54.00;;;20.96;47.68;98457.34;5044218;28;20052;-50
2022/07/12 09:06:52;;;;;;;1.30;0.98;;;21.30;53.50;;;21.13;47.88;98459.59;5045795;28;20052;-53
2022/07/12 09:09:31;;;;;;;0.90;0.90;;;21.50;53.70;;;21.21;47.32;98459.41;5045623;28;20335;-50
2022/07/12 09:11:59;;;;;;;1.83;1.10;;;21.60;52.10;;;21.28;46.41;98457.50;5045763;28;20056;-50
2022/07/12 09:14:28;;;;;;;1.23;1.00;;;21.60;51.40;;;21.29;45.95;98461.91;5047118;28;20045;-53
2022/07/12 09:17:01;;;;;;;0.95;0.90;;;21.60;49.50;;;21.34;45.37;98456.66;5045822;28;20279;-54
2022/07/12 09:19:29;;;;;;;1.83;1.15;;;21.60;51.00;;;21.35;46.33;98469.19;5046272;28;20059;-51
2022/07/12 09:21:57;;;;;;;1.40;1.30;;;21.80;52.20;;;21.43;45.89;98460.00;5045465;28;20049;-52
2022/07/12 09:24:27;;;;;;;2.25;1.10;;;21.80;50.70;;;21.46;46.06;98465.03;5046766;28;20052;-48
2022/07/12 09:27:04;;;;;;;2.13;0.90;;;21.80;51.20;;;21.58;45.72;98459.81;5046958;28;20061;-51
2022/07/12 09:29:34;;;;;;;0.88;0.88;;;22.00;51.30;;;21.67;45.74;98460.38;5045979;28;20049;-53
2022/07/12 09:37:46;;;;;;;0.82;0.82;;;22.00;50.40;;;21.72;45.45;98453.28;5046612;28;20260;-54
2022/07/12 09:40:14;;;;;;;1.10;1.00;;;22.00;50.70;;;21.54;44.92;98456.69;5049712;28;20075;-49
2022/07/12 09:42:43;;;;;;;0.98;0.80;;;21.90;49.30;;;21.55;45.07;98455.63;5048977;28;20056;-51
2022/07/12 09:45:11;;;;;;;1.88;1.10;;;21.90;50.20;;;21.49;44.92;98452.94;5048465;28;20401;-53
2022/07/12 09:47:39;;;;;;;1.75;0.88;;;21.80;49.60;;;21.56;44.61;98467.31;5049370;28;20040;-53
2022/07/12 09:50:07;;;;;;;1.38;1.08;;;21.90;50.10;;;21.66;45.04;98453.31;5049749;28;20041;-53
2022/07/12 09:52:39;;;;;;;1.38;1.10;;;21.90;50.40;;;21.74;44.80;98464.75;5049555;28;20059;-53
2022/07/12 09:55:10;;;;;;;1.15;0.80;;;22.00;50.20;;;21.79;45.13;98458.66;5049557;28;20555;-55
2022/07/12 09:57:41;;;;;;;0.95;0.93;;;22.00;50.20;;;21.82;44.54;98461.78;5047887;28;20055;-52
2022/07/12 10:00:11;;;;;;;1.10;1.00;;;22.00;50.00;;;21.91;44.30;98462.41;5048946;28;20049;-52
2022/07/12 10:02:40;;;;;;;1.02;0.90;;;22.10;50.00;;;21.96;44.60;98459.84;5049378;28;20075;-54
2022/07/12 10:05:11;;;;;;;0.70;0.70;;;22.20;49.70;;;21.93;43.68;98462.19;5049168;28;20055;-52
2022/07/12 10:07:39;;;;;;;1.00;0.90;;;22.10;48.50;;;21.96;43.99;98456.31;5047160;28;20044;-49
2022/07/12 10:10:10;;;;;;;1.00;0.90;;;22.10;49.50;;;21.99;43.86;98464.84;5049571;28;20548;-50
2022/07/12 10:12:40;;;;;;;1.05;0.90;;;22.20;49.10;;;21.92;43.01;98460.50;5048201;28;20057;-51
2022/07/12 10:15:22;;;;;;;1.15;0.93;;;22.30;47.50;;;21.99;44.00;98464.03;5031565;28;20053;-49
2022/07/12 10:17:55;;;;;;;1.27;1.00;;;22.30;49.00;;;22.05;43.51;98468.59;5048403;28;20354;-50
2022/07/12 10:20:26;;;;;;;0.93;0.73;;;22.40;48.50;;;22.13;43.98;98467.53;5047247;28;20274;-49
2022/07/12 10:23:15;;;;;;;1.00;1.00;;;22.40;48.90;;;22.21;43.81;98459.94;5047716;28;20041;-49
2022/07/12 10:25:43;;;;;;;1.17;1.08;;;22.50;49.00;;;22.28;43.37;98459.16;5047007;28;20045;-49
2022/07/12 10:28:12;;;;;;;1.73;0.82;;;22.60;47.90;;;22.28;42.73;98459.97;5047544;28;20365;-51
2022/07/12 10:30:48;;;;;;;0.93;0.93;;;22.60;46.60;;;22.33;42.53;98454.72;5048371;28;20041;-50
2022/07/12 10:33:22;;;;;;;0.90;0.90;;;22.70;47.30;;;22.44;43.11;98452.38;5047526;28;20045;-51
2022/07/12 10:36:08;;;;;;;2.92;1.35;;;22.70;48.30;;;22.50;43.04;98448.78;5048716;28;20044;-48